N420SB LCLK-LLBG
Flight info
| Callsign | N420SB |
|---|---|
| Flight time | 0h 46m |
| Altitude | 31000 |
| Route | EMEDA DCT TUZIB L189 ZUKKO |
| Aircraft | HDJT/L-SABDGRWY/H |
Departure
| Time | 2026-05-05 02:16 |
|---|---|
| Airport | Larnaca International Airport (LCLK) |
Arrival
| Time | 2026-05-05 03:02 |
|---|---|
| Airport | Ben Gurion International Airport (LLBG) |
| Time | Latitude | Longitude | Altitude | Speed | Heading |
|---|---|---|---|---|---|
| 2026-05-05 01:53 | 34.88560 | 33.62829 | 10 ft | 0 kts | 316° |
| 2026-05-05 02:07 | 34.88556 | 33.62834 | 10 ft | 4 kts | 316° |
| 2026-05-05 02:07 | 34.88532 | 33.62847 | 10 ft | 4 kts | 360° |
| 2026-05-05 02:08 | 34.88506 | 33.62837 | 11 ft | 4 kts | 31° |
| 2026-05-05 02:08 | 34.88484 | 33.62819 | 10 ft | 4 kts | 20° |
| 2026-05-05 02:08 | 34.88473 | 33.62823 | 10 ft | 1 kts | 315° |
| 2026-05-05 02:08 | 34.88472 | 33.62824 | 10 ft | 0 kts | 315° |
| 2026-05-05 02:12 | 34.88476 | 33.62811 | 10 ft | 2 kts | 322° |
| 2026-05-05 02:12 | 34.88477 | 33.62818 | 10 ft | 2 kts | 136° |
| 2026-05-05 02:13 | 34.88446 | 33.62851 | 10 ft | 16 kts | 147° |
| 2026-05-05 02:13 | 34.88370 | 33.62947 | 10 ft | 15 kts | 135° |
| 2026-05-05 02:13 | 34.88274 | 33.63062 | 10 ft | 22 kts | 127° |
| 2026-05-05 02:13 | 34.88330 | 33.63200 | 12 ft | 19 kts | 48° |
| 2026-05-05 02:14 | 34.88426 | 33.63314 | 12 ft | 19 kts | 46° |
| 2026-05-05 02:14 | 34.88443 | 33.63345 | 13 ft | 0 kts | 71° |
| 2026-05-05 02:14 | 34.88445 | 33.63358 | 13 ft | 5 kts | 96° |
| 2026-05-05 02:14 | 34.88404 | 33.63431 | 14 ft | 18 kts | 134° |
| 2026-05-05 02:15 | 34.88277 | 33.63493 | 11 ft | 23 kts | 220° |
| 2026-05-05 02:15 | 34.88085 | 33.63251 | 11 ft | 75 kts | 224° |
| 2026-05-05 02:15 | 34.87513 | 33.62587 | 91 ft | 147 kts | 226° |
| 2026-05-05 02:15 | 34.86710 | 33.61552 | 388 ft | 187 kts | 228° |
| 2026-05-05 02:16 | 34.85771 | 33.60260 | 478 ft | 220 kts | 230° |
| 2026-05-05 02:16 | 34.84746 | 33.58894 | 1192 ft | 212 kts | 227° |
| 2026-05-05 02:16 | 34.83752 | 33.57708 | 2345 ft | 192 kts | 226° |
| 2026-05-05 02:16 | 34.82760 | 33.56615 | 3022 ft | 194 kts | 223° |
| 2026-05-05 02:17 | 34.81664 | 33.55689 | 3773 ft | 194 kts | 210° |
| 2026-05-05 02:17 | 34.80308 | 33.55302 | 4348 ft | 208 kts | 192° |
| 2026-05-05 02:17 | 34.78834 | 33.55578 | 4979 ft | 224 kts | 171° |
| 2026-05-05 02:17 | 34.77469 | 33.56632 | 5531 ft | 244 kts | 148° |
| 2026-05-05 02:18 | 34.76253 | 33.58095 | 6088 ft | 247 kts | 147° |
| 2026-05-05 02:18 | 34.75005 | 33.59528 | 6604 ft | 248 kts | 148° |
| 2026-05-05 02:18 | 34.73738 | 33.60951 | 7280 ft | 248 kts | 148° |
| 2026-05-05 02:18 | 34.72514 | 33.62369 | 8138 ft | 240 kts | 148° |
| 2026-05-05 02:19 | 34.71286 | 33.63768 | 8739 ft | 244 kts | 148° |
| 2026-05-05 02:19 | 34.70043 | 33.65185 | 9377 ft | 246 kts | 147° |
| 2026-05-05 02:19 | 34.68792 | 33.66618 | 9968 ft | 248 kts | 148° |
| 2026-05-05 02:19 | 34.67528 | 33.68063 | 10519 ft | 251 kts | 147° |
| 2026-05-05 02:20 | 34.66254 | 33.69520 | 11053 ft | 252 kts | 147° |
| 2026-05-05 02:20 | 34.64972 | 33.70984 | 11609 ft | 254 kts | 147° |
| 2026-05-05 02:20 | 34.63678 | 33.72460 | 12142 ft | 256 kts | 147° |
| 2026-05-05 02:20 | 34.62307 | 33.73806 | 12661 ft | 249 kts | 159° |
| 2026-05-05 02:21 | 34.60767 | 33.74708 | 13174 ft | 243 kts | 170° |
| 2026-05-05 02:21 | 34.59170 | 33.75397 | 13678 ft | 245 kts | 169° |
| 2026-05-05 02:21 | 34.57564 | 33.76127 | 14132 ft | 248 kts | 169° |
| 2026-05-05 02:21 | 34.55960 | 33.76851 | 14555 ft | 250 kts | 169° |
| 2026-05-05 02:22 | 34.54321 | 33.77583 | 14989 ft | 252 kts | 169° |
| 2026-05-05 02:22 | 34.52666 | 33.78320 | 15393 ft | 255 kts | 169° |
| 2026-05-05 02:22 | 34.50994 | 33.79066 | 15820 ft | 257 kts | 169° |
| 2026-05-05 02:22 | 34.49306 | 33.79820 | 16238 ft | 259 kts | 170° |
| 2026-05-05 02:23 | 34.47589 | 33.80353 | 16684 ft | 250 kts | 182° |
| 2026-05-05 02:23 | 34.45868 | 33.80503 | 17108 ft | 248 kts | 186° |
| 2026-05-05 02:23 | 34.44135 | 33.80638 | 17517 ft | 251 kts | 185° |
| 2026-05-05 02:23 | 34.42391 | 33.80782 | 17920 ft | 252 kts | 185° |
| 2026-05-05 02:24 | 34.40637 | 33.80918 | 18295 ft | 253 kts | 186° |
| 2026-05-05 02:24 | 34.38877 | 33.81056 | 18672 ft | 253 kts | 186° |
| 2026-05-05 02:24 | 34.37119 | 33.81192 | 19042 ft | 253 kts | 187° |
| 2026-05-05 02:24 | 34.35361 | 33.81329 | 19394 ft | 253 kts | 187° |
| 2026-05-05 02:25 | 34.33605 | 33.81465 | 19750 ft | 253 kts | 188° |
| 2026-05-05 02:25 | 34.31849 | 33.81602 | 20096 ft | 253 kts | 188° |
| 2026-05-05 02:25 | 34.30095 | 33.81738 | 20440 ft | 253 kts | 189° |
| 2026-05-05 02:25 | 34.28340 | 33.81874 | 20769 ft | 253 kts | 189° |
| 2026-05-05 02:26 | 34.26588 | 33.82009 | 21092 ft | 252 kts | 190° |
| 2026-05-05 02:26 | 34.24842 | 33.82143 | 21409 ft | 250 kts | 192° |
| 2026-05-05 02:26 | 34.23103 | 33.82282 | 21690 ft | 251 kts | 192° |
| 2026-05-05 02:26 | 34.21359 | 33.82416 | 21965 ft | 251 kts | 192° |
| 2026-05-05 02:27 | 34.19613 | 33.82550 | 22234 ft | 252 kts | 193° |
| 2026-05-05 02:27 | 34.17865 | 33.82682 | 22504 ft | 252 kts | 193° |
| 2026-05-05 02:27 | 34.16116 | 33.82813 | 22759 ft | 252 kts | 193° |
| 2026-05-05 02:27 | 34.14364 | 33.82942 | 22999 ft | 252 kts | 194° |
| 2026-05-05 02:28 | 34.12633 | 33.83068 | 23244 ft | 253 kts | 194° |
| 2026-05-05 02:28 | 34.10876 | 33.83194 | 23476 ft | 253 kts | 194° |
| 2026-05-05 02:28 | 34.09117 | 33.83319 | 23659 ft | 254 kts | 194° |
| 2026-05-05 02:28 | 34.07353 | 33.83441 | 23830 ft | 254 kts | 194° |
| 2026-05-05 02:29 | 34.05584 | 33.83560 | 23999 ft | 255 kts | 194° |
| 2026-05-05 02:29 | 34.03810 | 33.83678 | 24126 ft | 256 kts | 195° |
| 2026-05-05 02:29 | 34.02024 | 33.83792 | 24251 ft | 258 kts | 195° |
| 2026-05-05 02:29 | 34.00232 | 33.83901 | 24416 ft | 258 kts | 195° |
| 2026-05-05 02:30 | 33.98434 | 33.84011 | 24573 ft | 259 kts | 195° |
| 2026-05-05 02:30 | 33.96632 | 33.84118 | 24720 ft | 260 kts | 195° |
| 2026-05-05 02:30 | 33.94823 | 33.84223 | 24884 ft | 260 kts | 195° |
| 2026-05-05 02:30 | 33.93012 | 33.84325 | 25031 ft | 261 kts | 195° |
| 2026-05-05 02:31 | 33.91189 | 33.84423 | 25077 ft | 265 kts | 195° |
| 2026-05-05 02:31 | 33.89314 | 33.84504 | 25080 ft | 275 kts | 195° |
| 2026-05-05 02:31 | 33.87349 | 33.84546 | 25091 ft | 290 kts | 195° |
| 2026-05-05 02:31 | 33.85279 | 33.84561 | 25038 ft | 305 kts | 195° |
| 2026-05-05 02:32 | 33.83101 | 33.84546 | 24940 ft | 319 kts | 195° |
| 2026-05-05 02:32 | 33.80848 | 33.84513 | 24913 ft | 328 kts | 195° |
| 2026-05-05 02:32 | 33.78545 | 33.84467 | 24921 ft | 335 kts | 195° |
| 2026-05-05 02:32 | 33.76195 | 33.84410 | 24936 ft | 340 kts | 195° |
| 2026-05-05 02:33 | 33.73807 | 33.84346 | 24939 ft | 345 kts | 195° |
| 2026-05-05 02:33 | 33.71459 | 33.84291 | 24935 ft | 334 kts | 194° |
| 2026-05-05 02:33 | 33.69192 | 33.84279 | 24926 ft | 324 kts | 194° |
| 2026-05-05 02:33 | 33.66944 | 33.84268 | 24927 ft | 322 kts | 195° |
| 2026-05-05 02:34 | 33.64711 | 33.84255 | 24928 ft | 320 kts | 195° |
| 2026-05-05 02:34 | 33.62493 | 33.84243 | 24927 ft | 318 kts | 195° |
| 2026-05-05 02:34 | 33.60270 | 33.84220 | 24927 ft | 321 kts | 195° |
| 2026-05-05 02:34 | 33.58031 | 33.84186 | 24933 ft | 323 kts | 195° |
| 2026-05-05 02:35 | 33.55770 | 33.84146 | 24935 ft | 326 kts | 195° |
| 2026-05-05 02:35 | 33.53489 | 33.84097 | 24937 ft | 329 kts | 195° |
| 2026-05-05 02:35 | 33.51197 | 33.84041 | 24939 ft | 330 kts | 195° |
| 2026-05-05 02:35 | 33.48895 | 33.83982 | 24940 ft | 331 kts | 195° |
| 2026-05-05 02:36 | 33.46590 | 33.83921 | 24941 ft | 332 kts | 195° |
| 2026-05-05 02:36 | 33.44278 | 33.83857 | 24941 ft | 332 kts | 195° |
| 2026-05-05 02:36 | 33.41966 | 33.83790 | 24947 ft | 333 kts | 195° |
| 2026-05-05 02:36 | 33.39650 | 33.83722 | 24947 ft | 333 kts | 195° |
| 2026-05-05 02:37 | 33.37332 | 33.83653 | 24947 ft | 333 kts | 195° |
| 2026-05-05 02:37 | 33.35014 | 33.83584 | 24945 ft | 333 kts | 195° |
| 2026-05-05 02:37 | 33.32693 | 33.83513 | 24951 ft | 334 kts | 195° |
| 2026-05-05 02:37 | 33.30370 | 33.83441 | 24951 ft | 334 kts | 195° |
| 2026-05-05 02:38 | 33.28049 | 33.83366 | 24951 ft | 334 kts | 195° |
| 2026-05-05 02:38 | 33.25726 | 33.83291 | 24951 ft | 334 kts | 195° |
| 2026-05-05 02:38 | 33.23434 | 33.83215 | 24957 ft | 334 kts | 195° |
| 2026-05-05 02:38 | 33.21113 | 33.83133 | 24957 ft | 334 kts | 195° |
| 2026-05-05 02:39 | 33.18748 | 33.83274 | 24956 ft | 348 kts | 187° |
| 2026-05-05 02:39 | 33.16354 | 33.83808 | 24954 ft | 347 kts | 181° |
| 2026-05-05 02:39 | 33.14046 | 33.84700 | 24953 ft | 357 kts | 175° |
| 2026-05-05 02:39 | 33.11706 | 33.85950 | 24954 ft | 379 kts | 168° |
| 2026-05-05 02:40 | 33.09367 | 33.87556 | 24961 ft | 397 kts | 162° |
| 2026-05-05 02:40 | 33.07108 | 33.89497 | 24964 ft | 401 kts | 156° |
| 2026-05-05 02:40 | 33.04977 | 33.91640 | 24962 ft | 396 kts | 157° |
| 2026-05-05 02:40 | 33.02693 | 33.93252 | 24954 ft | 367 kts | 174° |
| 2026-05-05 02:41 | 33.00325 | 33.93802 | 24959 ft | 331 kts | 194° |
| 2026-05-05 02:41 | 32.98119 | 33.93458 | 24973 ft | 314 kts | 205° |
| 2026-05-05 02:41 | 32.95984 | 33.92905 | 24978 ft | 315 kts | 205° |
| 2026-05-05 02:41 | 32.93808 | 33.92455 | 24982 ft | 320 kts | 201° |
| 2026-05-05 02:42 | 32.91566 | 33.92217 | 24982 ft | 329 kts | 196° |
| 2026-05-05 02:42 | 32.89231 | 33.92346 | 24960 ft | 342 kts | 189° |
| 2026-05-05 02:42 | 32.86848 | 33.92686 | 24969 ft | 345 kts | 188° |
| 2026-05-05 02:42 | 32.84479 | 33.92932 | 24971 ft | 338 kts | 191° |
| 2026-05-05 02:43 | 32.82139 | 33.93016 | 24973 ft | 336 kts | 193° |
| 2026-05-05 02:43 | 32.79791 | 33.93145 | 24972 ft | 340 kts | 191° |
| 2026-05-05 02:43 | 32.77427 | 33.93367 | 24978 ft | 341 kts | 190° |
| 2026-05-05 02:43 | 32.75070 | 33.93561 | 24980 ft | 339 kts | 191° |
| 2026-05-05 02:44 | 32.72752 | 33.93703 | 24985 ft | 338 kts | 191° |
| 2026-05-05 02:44 | 32.70397 | 33.93865 | 24975 ft | 339 kts | 191° |
| 2026-05-05 02:44 | 32.68034 | 33.94053 | 24775 ft | 341 kts | 190° |
| 2026-05-05 02:44 | 32.65741 | 33.94242 | 24439 ft | 321 kts | 191° |
| 2026-05-05 02:45 | 32.63558 | 33.94402 | 24046 ft | 306 kts | 192° |
| 2026-05-05 02:45 | 32.61419 | 33.94603 | 23581 ft | 320 kts | 187° |
| 2026-05-05 02:45 | 32.59210 | 33.95183 | 23046 ft | 336 kts | 179° |
| 2026-05-05 02:45 | 32.57022 | 33.96131 | 22483 ft | 344 kts | 172° |
| 2026-05-05 02:46 | 32.54876 | 33.97474 | 21960 ft | 352 kts | 162° |
| 2026-05-05 02:46 | 32.52891 | 33.99185 | 21443 ft | 355 kts | 154° |
| 2026-05-05 02:46 | 32.51098 | 34.01245 | 20938 ft | 362 kts | 146° |
| 2026-05-05 02:46 | 32.49390 | 34.03424 | 20442 ft | 358 kts | 147° |
| 2026-05-05 02:47 | 32.47669 | 34.05539 | 19771 ft | 355 kts | 148° |
| 2026-05-05 02:47 | 32.45965 | 34.07637 | 19062 ft | 351 kts | 147° |
| 2026-05-05 02:47 | 32.44379 | 34.09854 | 18361 ft | 358 kts | 137° |
| 2026-05-05 02:47 | 32.43111 | 34.12420 | 17574 ft | 364 kts | 126° |
| 2026-05-05 02:48 | 32.42205 | 34.15231 | 16794 ft | 368 kts | 114° |
| 2026-05-05 02:48 | 32.41654 | 34.18176 | 16037 ft | 364 kts | 108° |
| 2026-05-05 02:48 | 32.41154 | 34.21079 | 15299 ft | 356 kts | 109° |
| 2026-05-05 02:48 | 32.40622 | 34.23909 | 14560 ft | 350 kts | 109° |
| 2026-05-05 02:49 | 32.40110 | 34.26698 | 13855 ft | 344 kts | 108° |
| 2026-05-05 02:49 | 32.39628 | 34.29443 | 13061 ft | 337 kts | 108° |
| 2026-05-05 02:49 | 32.39148 | 34.32126 | 12287 ft | 329 kts | 108° |
| 2026-05-05 02:49 | 32.38665 | 34.34743 | 11528 ft | 322 kts | 107° |
| 2026-05-05 02:50 | 32.38202 | 34.37310 | 10783 ft | 315 kts | 106° |
| 2026-05-05 02:50 | 32.37753 | 34.39815 | 10055 ft | 308 kts | 106° |
| 2026-05-05 02:50 | 32.37305 | 34.42262 | 9289 ft | 301 kts | 106° |
| 2026-05-05 02:50 | 32.36868 | 34.44659 | 8511 ft | 295 kts | 105° |
| 2026-05-05 02:51 | 32.36449 | 34.46993 | 8147 ft | 286 kts | 105° |
| 2026-05-05 02:51 | 32.36023 | 34.49312 | 8000 ft | 290 kts | 105° |
| 2026-05-05 02:51 | 32.35592 | 34.51647 | 7815 ft | 291 kts | 106° |
| 2026-05-05 02:51 | 32.34931 | 34.53873 | 7603 ft | 285 kts | 120° |
| 2026-05-05 02:52 | 32.34096 | 34.55993 | 7399 ft | 285 kts | 117° |
| 2026-05-05 02:52 | 32.33364 | 34.58131 | 7185 ft | 283 kts | 115° |
| 2026-05-05 02:52 | 32.32615 | 34.60280 | 6974 ft | 282 kts | 117° |
| 2026-05-05 02:52 | 32.31827 | 34.62386 | 6762 ft | 280 kts | 117° |
| 2026-05-05 02:53 | 32.31041 | 34.64501 | 6553 ft | 278 kts | 117° |
| 2026-05-05 02:53 | 32.30266 | 34.66587 | 6350 ft | 276 kts | 117° |
| 2026-05-05 02:53 | 32.29496 | 34.68666 | 6128 ft | 277 kts | 118° |
| 2026-05-05 02:53 | 32.28722 | 34.70750 | 5906 ft | 277 kts | 117° |
| 2026-05-05 02:54 | 32.27949 | 34.72835 | 5672 ft | 277 kts | 117° |
| 2026-05-05 02:54 | 32.27183 | 34.74898 | 5360 ft | 271 kts | 117° |
| 2026-05-05 02:54 | 32.26683 | 34.76244 | 5157 ft | 270 kts | 117° |
| 2026-05-05 02:54 | 32.25929 | 34.78274 | 4857 ft | 269 kts | 117° |
| 2026-05-05 02:55 | 32.25181 | 34.80293 | 4549 ft | 268 kts | 117° |
| 2026-05-05 02:55 | 32.24432 | 34.82312 | 4239 ft | 268 kts | 117° |
| 2026-05-05 02:55 | 32.23688 | 34.84317 | 3954 ft | 264 kts | 116° |
| 2026-05-05 02:55 | 32.22977 | 34.86245 | 3651 ft | 246 kts | 116° |
| 2026-05-05 02:56 | 32.22309 | 34.88069 | 3318 ft | 240 kts | 117° |
| 2026-05-05 02:56 | 32.21647 | 34.89877 | 3020 ft | 240 kts | 117° |
| 2026-05-05 02:56 | 32.20986 | 34.91677 | 3018 ft | 239 kts | 117° |
| 2026-05-05 02:56 | 32.20323 | 34.93482 | 3020 ft | 239 kts | 117° |
| 2026-05-05 02:57 | 32.19533 | 34.95197 | 3027 ft | 236 kts | 129° |
| 2026-05-05 02:57 | 32.18481 | 34.96680 | 3028 ft | 236 kts | 139° |
| 2026-05-05 02:57 | 32.17193 | 34.97839 | 3031 ft | 227 kts | 153° |
| 2026-05-05 02:57 | 32.15832 | 34.98702 | 3025 ft | 220 kts | 161° |
| 2026-05-05 02:58 | 32.14373 | 34.98985 | 2989 ft | 212 kts | 192° |
| 2026-05-05 02:58 | 32.13130 | 34.98254 | 3013 ft | 193 kts | 227° |
| 2026-05-05 02:58 | 32.12275 | 34.97055 | 3201 ft | 187 kts | 225° |
| 2026-05-05 02:58 | 32.11276 | 34.96132 | 3068 ft | 182 kts | 215° |
| 2026-05-05 02:59 | 32.10142 | 34.95405 | 2500 ft | 190 kts | 210° |
| 2026-05-05 02:59 | 32.08988 | 34.94652 | 2055 ft | 189 kts | 212° |
| 2026-05-05 02:59 | 32.07851 | 34.93928 | 1684 ft | 184 kts | 211° |
| 2026-05-05 02:59 | 32.06753 | 34.93191 | 1245 ft | 179 kts | 213° |
| 2026-05-05 03:00 | 32.05731 | 34.92567 | 1071 ft | 153 kts | 207° |
| 2026-05-05 03:00 | 32.04857 | 34.92005 | 884 ft | 129 kts | 213° |
| 2026-05-05 03:00 | 32.04122 | 34.91499 | 668 ft | 117 kts | 212° |
| 2026-05-05 03:00 | 32.03430 | 34.91070 | 502 ft | 114 kts | 211° |
| 2026-05-05 03:01 | 32.02745 | 34.90609 | 368 ft | 115 kts | 209° |
| 2026-05-05 03:01 | 32.02020 | 34.90156 | 218 ft | 119 kts | 207° |
| 2026-05-05 03:01 | 32.01321 | 34.89703 | 118 ft | 107 kts | 209° |
| 2026-05-05 03:01 | 32.00743 | 34.89332 | 114 ft | 84 kts | 209° |
| 2026-05-05 03:02 | 32.00284 | 34.89038 | 114 ft | 66 kts | 210° |
| 2026-05-05 03:02 | 31.99979 | 34.88824 | 115 ft | 39 kts | 220° |
| 2026-05-05 03:02 | 31.99855 | 34.88641 | 114 ft | 27 kts | 238° |
| 2026-05-05 03:02 | 31.99878 | 34.88559 | 114 ft | 16 kts | 334° |
| 2026-05-05 03:03 | 31.99982 | 34.88583 | 113 ft | 12 kts | 298° |
| 2026-05-05 03:03 | 32.00029 | 34.88503 | 115 ft | 1 kts | 4° |
| 2026-05-05 03:03 | 32.00067 | 34.88529 | 115 ft | 7 kts | 29° |